createdAt,value
2023-05-04T03:58:46.629Z,1.30
2023-05-04T03:59:47.687Z,1.40
2023-05-04T04:00:46.868Z,1.30
2023-05-04T04:01:47.038Z,1.50
2023-05-04T04:02:47.241Z,1.30
2023-05-04T04:03:47.355Z,1.30
2023-05-04T04:04:47.451Z,1.30
2023-05-04T04:05:47.564Z,1.30
2023-05-04T04:06:47.751Z,1.10
2023-05-04T04:07:47.845Z,1.30
2023-05-04T04:08:48.877Z,1.20
2023-05-04T04:09:48.054Z,1.30
2023-05-04T04:10:48.215Z,1.10
2023-05-04T04:11:49.241Z,1.20
2023-05-04T04:12:48.471Z,1.30
2023-05-04T04:13:48.618Z,1.30
2023-05-04T04:14:48.789Z,1.40
2023-05-04T04:15:48.911Z,1.40
2023-05-04T04:16:48.985Z,1.30
2023-05-04T04:17:49.171Z,1.40
2023-05-04T04:18:49.233Z,1.30
2023-05-04T04:19:49.387Z,1.30
2023-05-04T04:20:49.455Z,1.40
2023-05-04T04:21:49.617Z,1.30
2023-05-04T04:22:49.695Z,1.30
2023-05-04T04:23:49.828Z,1.40
2023-05-04T04:24:50.705Z,1.40
2023-05-04T04:25:50.125Z,1.20
2023-05-04T04:26:51.200Z,1.20
2023-05-04T04:27:50.334Z,1.30
2023-05-04T04:28:50.551Z,1.40
2023-05-04T04:29:50.627Z,1.20
2023-05-04T04:30:50.746Z,1.20
2023-05-04T04:31:50.943Z,1.20
2023-05-04T04:32:51.115Z,1.30
2023-05-04T04:33:51.145Z,1.20
2023-05-04T04:34:51.339Z,1.30
2023-05-04T04:35:51.397Z,1.30
2023-05-04T04:36:51.532Z,1.20
2023-05-04T04:37:51.694Z,1.50
2023-05-04T04:38:51.922Z,1.30
2023-05-04T04:39:51.980Z,1.30
2023-05-04T04:40:52.134Z,1.40
2023-05-04T04:41:52.223Z,1.20
2023-05-04T04:42:52.694Z,1.40
2023-05-04T04:43:52.588Z,1.40
2023-05-04T04:44:52.752Z,1.40
2023-05-04T04:45:52.766Z,1.40
2023-05-04T04:46:53.899Z,1.40
2023-05-04T04:47:53.143Z,1.20
2023-05-04T04:48:53.268Z,1.30
2023-05-04T04:49:53.250Z,1.30
2023-05-04T04:50:53.455Z,1.30
2023-05-04T04:51:54.449Z,1.20
2023-05-04T04:52:53.620Z,1.30
2023-05-04T04:53:53.780Z,1.40
2023-05-04T04:54:53.933Z,1.30
2023-05-04T04:55:54.089Z,1.40
2023-05-04T04:56:54.153Z,1.30
2023-05-04T04:57:54.319Z,1.10
2023-05-04T04:58:54.588Z,1.40
2023-05-04T04:59:54.694Z,1.40
2023-05-04T05:00:54.843Z,1.40
2023-05-04T05:01:54.917Z,1.10
2023-05-04T05:02:55.128Z,1.50
2023-05-04T05:03:55.207Z,1.30
2023-05-04T05:04:55.463Z,1.30
2023-05-04T05:05:55.532Z,1.20
2023-05-04T05:06:56.591Z,1.40
2023-05-04T05:07:55.757Z,1.20
2023-05-04T05:08:55.932Z,1.40
2023-05-04T05:09:56.124Z,1.40
2023-05-04T05:10:56.191Z,1.20
2023-05-04T05:11:56.315Z,1.30
2023-05-04T05:12:56.517Z,1.40
2023-05-04T05:13:56.614Z,1.30
2023-05-04T05:14:56.766Z,1.40
2023-05-04T05:15:57.885Z,1.50
2023-05-04T05:16:57.066Z,1.40
2023-05-04T05:17:57.332Z,1.30
2023-05-04T05:18:57.363Z,1.30
2023-05-04T05:19:57.471Z,1.30
2023-05-04T05:20:57.587Z,1.40
2023-05-04T05:21:57.802Z,1.30
2023-05-04T05:22:57.852Z,1.30
2023-05-04T05:23:58.016Z,1.60
2023-05-04T05:24:58.074Z,1.20
2023-05-04T05:25:58.209Z,1.30
2023-05-04T05:26:58.376Z,1.40
2023-05-04T05:27:58.487Z,1.20
2023-05-04T05:28:58.619Z,1.30
2023-05-04T05:29:58.786Z,1.40
2023-05-04T05:30:59.022Z,1.30
2023-05-04T05:31:59.049Z,1.20
2023-05-04T05:32:59.264Z,1.30
2023-05-04T05:34:00.323Z,1.30
2023-05-04T05:34:59.447Z,1.50
2023-05-04T05:35:59.604Z,1.20
2023-05-04T05:36:59.924Z,1.30
2023-05-04T05:37:59.817Z,1.20
2023-05-04T05:38:59.981Z,1.40
2023-05-04T05:40:00.183Z,1.30
2023-05-04T05:41:00.223Z,1.30
2023-05-04T05:42:00.397Z,1.20
2023-05-04T05:43:00.481Z,1.30
2023-05-04T05:45:16.142Z,1.20
2023-05-04T05:46:16.332Z,1.30
2023-05-04T05:47:16.505Z,1.20
2023-05-04T05:48:16.761Z,1.20
2023-05-04T05:49:16.758Z,1.30
2023-05-04T05:50:16.853Z,1.40
2023-05-04T05:51:17.138Z,1.40
2023-05-04T05:52:17.167Z,1.50
2023-05-04T05:53:17.306Z,1.30
2023-05-04T05:54:17.431Z,1.30
2023-05-04T05:55:17.536Z,1.20
2023-05-04T05:56:17.685Z,1.20
2023-05-04T05:57:17.803Z,1.30
2023-05-04T05:58:19.577Z,1.40
2023-05-04T05:59:18.111Z,1.20
2023-05-04T06:00:18.249Z,1.30
2023-05-04T06:01:18.383Z,1.30
2023-05-04T06:02:18.706Z,1.50
2023-05-04T06:03:19.016Z,1.30
2023-05-04T06:04:18.921Z,1.30
2023-05-04T06:05:19.959Z,1.60
2023-05-04T06:06:19.045Z,1.40
2023-05-04T06:07:19.423Z,1.40
2023-05-04T06:08:19.417Z,1.20
2023-05-04T06:09:19.403Z,1.30
2023-05-04T06:10:19.734Z,1.40
2023-05-04T06:11:19.683Z,1.30
2023-05-04T06:12:19.854Z,1.50
2023-05-04T06:13:20.116Z,1.20
2023-05-04T06:14:20.098Z,1.30
2023-05-04T06:15:20.289Z,1.20
2023-05-04T06:16:20.414Z,1.30
2023-05-04T06:17:20.541Z,1.30
2023-05-04T06:18:20.749Z,1.30
2023-05-04T06:19:20.805Z,1.20
2023-05-04T06:20:21.086Z,1.40
2023-05-04T06:21:21.186Z,1.30
2023-05-04T06:22:21.226Z,1.20
2023-05-04T06:23:21.360Z,1.20
2023-05-04T06:24:22.618Z,1.20
2023-05-04T06:25:21.760Z,1.30
2023-05-04T06:26:21.863Z,1.30
2023-05-04T06:27:23.694Z,1.20
2023-05-04T06:28:22.235Z,1.40
2023-05-04T06:29:22.312Z,1.30
2023-05-04T06:30:22.425Z,1.30
2023-05-04T06:31:22.566Z,1.20
2023-05-04T06:32:23.700Z,1.40
2023-05-04T06:33:23.687Z,1.10
2023-05-04T06:34:23.959Z,1.20
2023-05-04T06:35:24.024Z,1.40
2023-05-04T06:36:23.378Z,1.30
2023-05-04T06:37:23.356Z,1.40
2023-05-04T06:38:23.501Z,1.20
2023-05-04T06:39:24.719Z,1.30
2023-05-04T06:40:23.715Z,1.40
2023-05-04T06:41:24.838Z,1.40
2023-05-04T06:42:24.038Z,1.30
2023-05-04T06:43:25.136Z,1.40
2023-05-04T06:44:24.265Z,1.40
2023-05-04T06:45:24.588Z,1.20
2023-05-04T06:46:24.609Z,1.30
2023-05-04T06:47:24.697Z,1.50
2023-05-04T06:48:24.850Z,1.50
2023-05-04T06:49:25.062Z,1.20
2023-05-04T06:50:25.223Z,1.30
2023-05-04T06:51:25.266Z,1.20
2023-05-04T06:52:25.363Z,1.30
2023-05-04T06:53:25.597Z,1.30
2023-05-04T06:54:25.654Z,1.40
2023-05-04T06:55:25.849Z,1.40
2023-05-04T06:56:25.902Z,1.40
2023-05-04T06:57:26.261Z,1.50
2023-05-04T06:58:26.418Z,1.60
2023-05-04T06:59:26.887Z,1.40
2023-05-04T07:00:27.566Z,1.40
2023-05-04T07:01:26.643Z,1.30
2023-05-04T07:02:26.881Z,1.30
2023-05-04T07:03:26.911Z,1.30
2023-05-04T07:04:27.156Z,1.50
2023-05-04T07:05:27.206Z,1.30
2023-05-04T07:06:27.329Z,1.20
2023-05-04T07:07:27.529Z,1.20
2023-05-04T07:08:27.492Z,1.30
2023-05-04T07:09:27.581Z,1.20
2023-05-04T07:10:27.712Z,1.30
2023-05-04T07:11:27.919Z,1.20
2023-05-04T07:12:28.016Z,1.30
2023-05-04T07:13:28.135Z,1.30
2023-05-04T07:14:28.322Z,1.50
2023-05-04T07:15:28.490Z,1.20
2023-05-04T07:16:28.680Z,1.30
2023-05-04T07:17:29.025Z,1.40
2023-05-04T07:18:28.955Z,1.30
2023-05-04T07:19:29.230Z,1.30
2023-05-04T07:20:29.171Z,1.20
2023-05-04T07:21:29.299Z,1.30
2023-05-04T07:22:29.491Z,1.30
2023-05-04T07:23:29.601Z,1.20
2023-05-04T07:24:29.784Z,1.30
2023-05-04T07:25:29.880Z,1.20
2023-05-04T07:26:30.009Z,1.20
2023-05-04T07:27:31.074Z,1.20
2023-05-04T07:28:30.390Z,1.20
2023-05-04T07:29:30.413Z,1.20
2023-05-04T07:30:30.791Z,1.20
2023-05-04T07:31:31.005Z,1.10
2023-05-04T07:32:31.074Z,1.20
2023-05-04T07:34:46.857Z,1.40
2023-05-04T07:35:47.018Z,1.40
2023-05-04T07:36:46.933Z,1.30
2023-05-04T07:37:48.992Z,1.20
2023-05-04T07:38:47.250Z,1.20
2023-05-04T07:39:47.373Z,1.20
2023-05-04T07:40:47.404Z,1.10
2023-05-04T07:41:49.582Z,1.30
2023-05-04T07:42:47.710Z,1.30
2023-05-04T07:43:47.905Z,1.20
2023-05-04T07:44:48.038Z,1.10
2023-05-04T07:45:48.327Z,1.20
2023-05-04T07:46:48.244Z,1.20
2023-05-04T07:47:48.646Z,1.10
2023-05-04T07:48:48.825Z,1.20
2023-05-04T07:49:49.000Z,1.10
2023-05-04T07:50:48.786Z,1.20
2023-05-04T07:51:49.137Z,1.00
2023-05-04T07:52:49.911Z,1.10
2023-05-04T07:53:49.289Z,1.20
2023-05-04T07:54:49.422Z,1.20
2023-05-04T07:55:49.599Z,1.20
2023-05-04T07:56:49.743Z,1.10
2023-05-04T07:57:50.933Z,1.20
2023-05-04T07:58:49.948Z,1.20
2023-05-04T07:59:50.120Z,1.10
2023-05-04T08:00:50.198Z,1.30
2023-05-04T08:01:50.421Z,1.00
2023-05-04T08:02:50.469Z,1.00
2023-05-04T08:03:50.653Z,1.10
2023-05-04T08:04:50.617Z,1.30
2023-05-04T08:05:50.913Z,1.10
2023-05-04T08:06:51.056Z,1.10
2023-05-04T08:07:51.675Z,1.10
2023-05-04T08:08:52.885Z,1.00
2023-05-04T08:09:51.245Z,1.10
2023-05-04T08:10:52.112Z,1.10
2023-05-04T08:11:51.538Z,1.10
2023-05-04T08:12:51.953Z,1.20
2023-05-04T08:13:52.930Z,1.40
2023-05-04T08:14:52.194Z,1.00
2023-05-04T08:15:52.403Z,1.30
2023-05-04T08:16:53.272Z,1.10
2023-05-04T08:17:52.813Z,1.10
2023-05-04T08:18:52.589Z,1.20
2023-05-04T08:19:52.847Z,1.10
2023-05-04T08:20:52.809Z,1.10
2023-05-04T08:21:53.016Z,1.10
2023-05-04T08:22:53.136Z,1.10
2023-05-04T08:23:54.273Z,1.00
2023-05-04T08:24:53.466Z,1.00
2023-05-04T08:25:53.525Z,1.00
2023-05-04T08:27:06.580Z,1.10
2023-05-04T08:27:54.857Z,1.10
2023-05-04T08:28:53.929Z,1.00
2023-05-04T08:29:54.143Z,1.00
2023-05-04T08:30:54.326Z,1.10
2023-05-04T08:31:56.359Z,1.10
2023-05-04T08:32:54.638Z,1.00
2023-05-04T08:33:54.920Z,1.10
2023-05-04T08:34:54.790Z,0.90
2023-05-04T08:35:55.017Z,1.00
2023-05-04T08:36:55.126Z,1.10
2023-05-04T08:37:55.103Z,1.00
2023-05-04T08:38:55.391Z,1.00
2023-05-04T08:39:55.579Z,0.90
2023-05-04T08:40:55.794Z,1.00
2023-05-04T08:41:56.684Z,1.10
2023-05-04T08:42:57.996Z,1.10
2023-05-04T08:43:56.194Z,1.10
2023-05-04T08:44:56.283Z,1.10
2023-05-04T08:45:57.352Z,1.00
2023-05-04T08:46:56.645Z,1.10
2023-05-04T08:47:56.628Z,1.00
2023-05-04T08:48:58.455Z,1.00
2023-05-04T08:49:58.004Z,0.90
2023-05-04T08:50:57.034Z,1.00
2023-05-04T08:51:57.189Z,1.10
2023-05-04T08:52:57.380Z,1.30
2023-05-04T08:53:57.447Z,1.10
2023-05-04T08:54:57.597Z,1.00
2023-05-04T08:55:57.696Z,1.10
2023-05-04T08:56:57.907Z,0.90
2023-05-04T08:57:58.854Z,0.90
2023-05-04T08:58:59.020Z,0.90
2023-05-04T08:59:59.356Z,0.90
2023-05-04T09:00:58.366Z,1.10
2023-05-04T09:01:58.625Z,1.00
2023-05-04T09:02:58.758Z,1.10
2023-05-04T09:03:58.845Z,1.00
2023-05-04T09:04:58.947Z,1.00
2023-05-04T09:05:59.155Z,1.10
2023-05-04T09:07:00.120Z,1.00
2023-05-04T09:07:59.319Z,1.10
2023-05-04T09:09:00.206Z,1.00
2023-05-04T09:10:00.303Z,1.20
2023-05-04T09:10:59.702Z,0.90
2023-05-04T09:11:59.847Z,0.90
2023-05-04T09:14:16.510Z,1.00
2023-05-04T09:15:15.591Z,1.10
2023-05-04T09:16:16.668Z,1.00
2023-05-04T09:17:15.887Z,1.00
2023-05-04T09:18:15.976Z,0.90
2023-05-04T09:19:16.110Z,0.90
2023-05-04T09:20:16.262Z,0.90
2023-05-04T09:21:16.487Z,1.10
2023-05-04T09:22:16.671Z,1.10
2023-05-04T09:23:17.749Z,1.00
2023-05-04T09:24:16.947Z,1.00
2023-05-04T09:25:17.122Z,0.90
2023-05-04T09:26:17.329Z,0.90
2023-05-04T09:27:17.251Z,0.90
2023-05-04T09:28:17.466Z,0.90
2023-05-04T09:29:17.788Z,0.90
2023-05-04T09:30:17.819Z,1.00
2023-05-04T09:31:18.014Z,1.10
2023-05-04T09:32:17.916Z,1.00
2023-05-04T09:33:18.109Z,0.90
2023-05-04T09:34:18.222Z,0.90
2023-05-04T09:35:32.006Z,1.10
2023-05-04T09:36:19.374Z,0.90
2023-05-04T09:37:18.488Z,0.90
2023-05-04T09:38:18.664Z,0.90
2023-05-04T09:39:18.840Z,0.90
2023-05-04T09:40:18.886Z,0.90
2023-05-04T09:41:19.070Z,1.00
2023-05-04T09:42:19.234Z,0.90
2023-05-04T09:43:19.238Z,0.90
2023-05-04T09:44:19.416Z,1.00
2023-05-04T09:45:20.375Z,1.10
2023-05-04T09:46:19.869Z,1.00
2023-05-04T09:47:20.608Z,0.90
2023-05-04T09:48:20.894Z,0.90
2023-05-04T09:49:21.158Z,1.00
2023-05-04T09:50:22.110Z,0.80
2023-05-04T09:51:20.482Z,0.90
2023-05-04T09:52:20.476Z,1.00
2023-05-04T09:53:20.703Z,1.00
2023-05-04T09:54:20.684Z,1.00
2023-05-04T09:55:21.067Z,0.90
2023-05-04T09:56:21.028Z,0.80
2023-05-04T09:57:21.220Z,0.80
2023-05-04T09:58:21.424Z,1.10
2023-05-04T09:59:21.360Z,0.90
2023-05-04T10:00:21.565Z,1.10
2023-05-04T10:01:21.692Z,0.90
2023-05-04T10:02:23.550Z,0.90
2023-05-04T10:13:13.646Z,0.90
2023-05-04T10:14:13.773Z,0.80
2023-05-04T10:15:13.881Z,1.00
2023-05-04T10:16:14.201Z,0.90
2023-05-04T10:17:14.073Z,1.00
2023-05-04T10:18:14.187Z,1.10
2023-05-04T10:19:14.344Z,0.90
2023-05-04T10:20:14.615Z,0.90
2023-05-04T10:21:14.623Z,1.20
2023-05-04T10:22:15.788Z,0.90
2023-05-04T10:23:14.937Z,0.90
2023-05-04T10:24:15.104Z,1.00
2023-05-04T10:25:16.145Z,1.00
2023-05-04T10:26:16.284Z,1.00
2023-05-04T10:27:15.690Z,0.90
2023-05-04T10:28:15.690Z,1.00
2023-05-04T10:29:15.771Z,0.90
2023-05-04T10:30:15.931Z,0.90
2023-05-04T10:31:16.052Z,1.00
2023-05-04T10:32:16.534Z,1.00
2023-05-04T10:33:16.474Z,1.10
2023-05-04T10:34:16.678Z,1.00
2023-05-04T10:35:17.577Z,1.10
2023-05-04T10:36:16.968Z,1.10
2023-05-04T10:37:17.288Z,1.20
2023-05-04T10:38:18.095Z,1.00
2023-05-04T10:39:17.405Z,0.80
2023-05-04T10:40:17.444Z,1.00
2023-05-04T10:41:18.478Z,1.00
2023-05-04T10:42:17.847Z,0.90
2023-05-04T10:43:17.827Z,1.00
2023-05-04T10:44:17.776Z,1.00
2023-05-04T10:45:17.972Z,0.80
2023-05-04T10:46:19.090Z,0.90
2023-05-04T10:47:19.072Z,1.10
2023-05-04T10:48:18.470Z,0.90
2023-05-04T10:49:18.590Z,1.10
2023-05-04T10:50:19.123Z,0.90
2023-05-04T10:51:18.922Z,1.10
2023-05-04T10:52:19.137Z,1.10
2023-05-04T10:53:19.349Z,1.00
2023-05-04T10:54:19.391Z,1.00
2023-05-04T10:55:20.489Z,0.90
2023-05-04T10:56:19.804Z,0.90
2023-05-04T10:57:19.862Z,0.90
2023-05-04T10:58:20.049Z,1.00
2023-05-04T10:59:20.079Z,1.00
2023-05-04T11:00:20.305Z,0.80
2023-05-04T11:01:20.429Z,0.90
2023-05-04T11:02:20.700Z,0.90
2023-05-04T11:03:20.757Z,0.90
2023-05-04T11:04:20.869Z,0.90
2023-05-04T11:05:21.108Z,1.00
2023-05-04T11:06:23.730Z,0.80
2023-05-04T11:07:21.312Z,1.00
2023-05-04T11:08:21.480Z,0.90
2023-05-04T11:09:21.804Z,0.80
2023-05-04T11:10:21.734Z,0.80
2023-05-04T11:11:21.812Z,1.00
2023-05-04T11:12:21.936Z,1.00
2023-05-04T11:13:22.359Z,0.90
2023-05-04T11:14:22.281Z,1.00
2023-05-04T11:15:22.485Z,1.10
2023-05-04T11:16:22.551Z,0.90
2023-05-04T11:17:28.189Z,0.90
2023-05-04T11:18:24.000Z,0.80
2023-05-04T11:19:23.199Z,1.00
2023-05-04T11:20:23.152Z,0.90
2023-05-04T11:21:23.249Z,0.90
2023-05-04T11:22:23.558Z,0.90
2023-05-04T11:23:24.450Z,1.20
2023-05-04T11:24:23.684Z,0.90
2023-05-04T11:25:23.763Z,0.90
2023-05-04T11:26:23.930Z,1.10
2023-05-04T11:27:24.056Z,1.10
2023-05-04T11:28:24.355Z,1.00
2023-05-04T11:29:24.395Z,1.10
2023-05-04T11:30:24.519Z,1.00
2023-05-04T11:31:24.685Z,1.00
2023-05-04T11:32:24.835Z,0.90
2023-05-04T11:33:25.899Z,1.00
2023-05-04T11:34:25.028Z,1.00
2023-05-04T11:35:25.201Z,1.00
2023-05-04T11:36:26.324Z,0.90
2023-05-04T11:37:25.543Z,0.90
2023-05-04T11:38:25.692Z,0.90
2023-05-04T11:39:25.795Z,1.00
2023-05-04T11:40:26.118Z,0.90
2023-05-04T11:41:26.786Z,0.90
2023-05-04T11:42:26.243Z,1.00
2023-05-04T11:43:26.300Z,1.00
2023-05-04T11:44:26.560Z,0.90
2023-05-04T11:45:26.590Z,0.90
2023-05-04T11:46:26.726Z,0.90
2023-05-04T11:47:27.319Z,0.90
2023-05-04T11:48:27.999Z,1.00
2023-05-04T11:49:27.163Z,0.80
2023-05-04T11:50:27.540Z,1.00
2023-05-04T11:51:27.538Z,1.00
2023-05-04T11:53:42.747Z,0.90
2023-05-04T11:54:42.705Z,1.10
2023-05-04T11:55:42.761Z,1.00
2023-05-04T11:56:42.846Z,1.10
2023-05-04T11:57:43.206Z,1.20
2023-05-04T11:58:42.904Z,1.30
2023-05-04T11:59:42.739Z,1.10
2023-05-04T12:00:42.961Z,1.10
2023-05-04T12:01:42.844Z,1.10
2023-05-04T12:02:42.986Z,1.10
2023-05-04T12:03:52.072Z,1.10
2023-05-04T12:04:44.668Z,1.10
2023-05-04T12:05:42.905Z,1.00
2023-05-04T12:06:42.882Z,1.00
2023-05-04T12:07:42.847Z,1.20
2023-05-04T12:08:43.443Z,1.10
2023-05-04T12:09:42.802Z,1.00
2023-05-04T12:10:42.926Z,1.10
2023-05-04T12:11:42.887Z,1.00
2023-05-04T12:12:43.011Z,1.10
2023-05-04T12:13:42.848Z,1.00
2023-05-04T12:14:42.957Z,1.10
2023-05-04T12:15:44.129Z,1.10
2023-05-04T12:16:44.075Z,0.90
2023-05-04T12:17:42.981Z,1.00
2023-05-04T12:18:43.935Z,1.00
2023-05-04T12:19:43.189Z,1.30
2023-05-04T12:20:42.966Z,1.10
2023-05-04T12:21:42.994Z,1.00
2023-05-04T12:22:43.315Z,1.00
2023-05-04T12:23:43.871Z,1.00
2023-05-04T12:24:43.021Z,1.00
2023-05-04T12:25:54.780Z,0.90
2023-05-04T12:26:44.232Z,1.10
2023-05-04T12:27:42.937Z,1.10
2023-05-04T12:28:43.124Z,1.00
2023-05-04T12:29:42.945Z,1.00
2023-05-04T12:30:43.885Z,1.00
2023-05-04T12:31:43.903Z,1.00
2023-05-04T12:32:42.959Z,1.10
2023-05-04T12:33:43.037Z,1.10
2023-05-04T12:34:44.004Z,1.00
2023-05-04T12:35:42.977Z,1.10
2023-05-04T12:36:43.097Z,1.10
2023-05-04T12:37:42.962Z,1.00
2023-05-04T12:38:43.964Z,1.20
2023-05-04T12:39:42.947Z,1.20
2023-05-04T12:40:42.973Z,1.10
2023-05-04T12:41:42.965Z,1.10
2023-05-04T12:42:43.082Z,1.00
2023-05-04T12:43:43.106Z,1.20
2023-05-04T12:44:43.966Z,1.10
2023-05-04T12:45:44.500Z,1.00
2023-05-04T12:46:43.323Z,1.00
2023-05-04T12:47:44.018Z,1.00
2023-05-04T12:48:43.116Z,1.20
2023-05-04T12:49:43.068Z,1.00
2023-05-04T12:50:44.344Z,1.00
2023-05-04T12:51:43.048Z,1.10
2023-05-04T12:52:43.051Z,1.10
2023-05-04T12:53:43.148Z,1.20
2023-05-04T12:54:43.290Z,1.10
2023-05-04T12:55:43.109Z,1.10
2023-05-04T12:56:43.117Z,1.00
2023-05-04T12:57:43.102Z,1.00
2023-05-04T12:58:43.176Z,1.00
2023-05-04T12:59:44.241Z,1.00
2023-05-04T13:00:45.993Z,1.20
2023-05-04T13:01:43.185Z,1.10
2023-05-04T13:02:43.270Z,1.10
2023-05-04T13:03:43.440Z,1.00
2023-05-04T13:04:43.154Z,1.10
2023-05-04T13:05:43.182Z,1.00
2023-05-04T13:06:43.171Z,1.00
2023-05-04T13:07:43.155Z,1.10
2023-05-04T13:08:43.136Z,0.90
2023-05-04T13:09:43.420Z,1.00
2023-05-04T13:10:44.088Z,1.00
2023-05-04T13:11:43.159Z,1.00
2023-05-04T13:12:45.490Z,1.10
2023-05-04T13:13:43.164Z,1.10
2023-05-04T13:14:43.179Z,1.00
2023-05-04T13:15:44.404Z,1.10
2023-05-04T13:16:43.196Z,1.10
2023-05-04T13:17:43.336Z,1.20
2023-05-04T13:18:43.430Z,1.10
2023-05-04T13:19:43.375Z,1.10
2023-05-04T13:20:43.272Z,1.10
2023-05-04T13:21:43.291Z,1.30
2023-05-04T13:22:43.270Z,1.20
2023-05-04T13:23:43.819Z,1.10
2023-05-04T13:24:44.057Z,1.00
2023-05-04T13:25:43.580Z,1.00
2023-05-04T13:26:43.300Z,1.10
2023-05-04T13:27:43.296Z,1.30
2023-05-04T13:28:43.476Z,1.10
2023-05-04T13:29:43.411Z,1.20
2023-05-04T13:30:45.342Z,1.00
2023-05-04T13:32:59.157Z,1.00
2023-05-04T13:33:59.328Z,1.00
2023-05-04T13:34:59.226Z,1.10
2023-05-04T13:35:59.359Z,1.10
2023-05-04T13:36:59.443Z,1.20
2023-05-04T13:37:59.649Z,1.10
2023-05-04T13:38:59.685Z,1.00
2023-05-04T13:39:59.839Z,1.10
2023-05-04T13:40:59.993Z,1.10
2023-05-04T13:42:00.825Z,1.10
2023-05-04T13:43:00.489Z,1.10
2023-05-04T13:44:00.535Z,1.10
2023-05-04T13:45:00.656Z,1.20
2023-05-04T13:46:00.838Z,1.20
2023-05-04T13:47:01.458Z,1.00
2023-05-04T13:48:01.001Z,1.00
2023-05-04T13:49:01.090Z,1.20
2023-05-04T13:50:01.190Z,1.10
2023-05-04T13:51:01.316Z,1.10
2023-05-04T13:52:01.402Z,1.10
2023-05-04T13:53:01.549Z,1.10
2023-05-04T13:54:02.558Z,1.00
2023-05-04T13:55:01.858Z,1.20
2023-05-04T13:56:01.975Z,1.00
2023-05-04T13:57:02.032Z,1.20
2023-05-04T13:58:02.176Z,1.10
2023-05-04T13:59:03.040Z,1.00
2023-05-04T14:00:07.492Z,1.10
2023-05-04T14:01:03.524Z,1.00
2023-05-04T14:02:02.853Z,1.10
2023-05-04T14:03:02.963Z,1.00
2023-05-04T14:04:02.925Z,1.10
2023-05-04T14:05:03.051Z,1.20
2023-05-04T14:06:03.242Z,1.20
2023-05-04T14:07:03.282Z,1.00
2023-05-04T14:08:03.375Z,1.10
2023-05-04T14:09:03.770Z,1.00
2023-05-04T14:10:03.635Z,1.20
2023-05-04T14:11:03.836Z,1.10
2023-05-04T14:12:03.832Z,1.10
2023-05-04T14:13:04.075Z,1.00
2023-05-04T14:14:04.112Z,1.20
2023-05-04T14:15:04.220Z,1.20
2023-05-04T14:16:04.347Z,1.10
2023-05-04T14:17:04.435Z,1.20
2023-05-04T14:18:04.589Z,1.20
2023-05-04T14:19:04.718Z,1.10
2023-05-04T14:20:04.765Z,1.10
2023-05-04T14:21:04.875Z,1.20
2023-05-04T14:22:05.017Z,1.10
2023-05-04T14:23:05.111Z,1.20
2023-05-04T14:24:05.238Z,1.10
2023-05-04T14:25:05.580Z,1.10
2023-05-04T14:26:05.671Z,1.20
2023-05-04T14:27:05.625Z,1.00
2023-05-04T14:28:05.790Z,1.40
2023-05-04T14:29:05.845Z,1.00
2023-05-04T14:30:06.062Z,1.10
2023-05-04T14:31:06.103Z,1.00
2023-05-04T14:32:06.285Z,1.30
2023-05-04T14:33:06.399Z,1.00
2023-05-04T14:34:06.530Z,1.10
2023-05-04T14:35:06.952Z,1.20
2023-05-04T14:36:06.750Z,1.20
2023-05-04T14:37:06.856Z,1.20
2023-05-04T14:38:06.971Z,1.10
2023-05-04T14:39:07.098Z,1.30
2023-05-04T14:40:07.655Z,1.20
2023-05-04T14:41:07.381Z,1.10
2023-05-04T14:42:07.422Z,1.10
2023-05-04T14:43:07.590Z,1.10
2023-05-04T14:44:07.764Z,1.10
2023-05-04T14:45:08.411Z,1.10
2023-05-04T14:46:08.109Z,1.30
2023-05-04T14:47:09.137Z,1.10
2023-05-04T14:48:08.318Z,1.20
2023-05-04T14:49:08.392Z,1.30
2023-05-04T14:50:08.730Z,1.20
2023-05-04T14:51:08.812Z,1.20
2023-05-04T14:52:08.815Z,1.20
2023-05-04T14:53:08.917Z,1.00
2023-05-04T14:54:09.149Z,1.00
2023-05-04T14:55:09.179Z,1.10
2023-05-04T14:56:09.334Z,1.10
2023-05-04T14:57:09.447Z,1.10
2023-05-04T14:58:09.588Z,1.10
2023-05-04T14:59:09.685Z,1.20
2023-05-04T15:00:11.093Z,1.20
2023-05-04T15:01:10.161Z,1.10
2023-05-04T15:02:10.083Z,1.20
2023-05-04T15:03:10.324Z,1.10
2023-05-04T15:04:10.333Z,1.10
2023-05-04T15:05:10.457Z,1.30
2023-05-04T15:06:10.613Z,1.10
2023-05-04T15:07:10.700Z,1.10
2023-05-04T15:08:10.890Z,1.00
2023-05-04T15:09:11.000Z,1.10
2023-05-04T15:10:11.363Z,1.10
2023-05-04T15:11:11.422Z,1.10
2023-05-04T15:12:11.531Z,1.40
2023-05-04T15:13:11.613Z,1.30
2023-05-04T15:14:11.667Z,0.90
2023-05-04T15:15:11.831Z,1.00
2023-05-04T15:16:11.965Z,1.00
2023-05-04T15:17:12.083Z,1.00
2023-05-04T15:18:12.319Z,1.10
2023-05-04T15:19:12.327Z,1.20
2023-05-04T15:20:12.444Z,1.20
2023-05-04T15:21:12.554Z,1.20
2023-05-04T15:22:12.710Z,1.10
2023-05-04T15:23:12.894Z,1.10
2023-05-04T15:24:12.986Z,1.20
2023-05-04T15:25:13.141Z,1.00
2023-05-04T15:26:13.316Z,1.10
2023-05-04T15:27:14.393Z,1.20
2023-05-04T15:28:13.569Z,1.10
2023-05-04T15:29:13.643Z,1.20
2023-05-04T15:30:13.781Z,1.00
2023-05-04T15:31:13.921Z,1.10
2023-05-04T15:32:14.052Z,1.20
2023-05-04T15:33:14.185Z,1.10
2023-05-04T15:34:16.886Z,1.10
2023-05-04T15:35:14.476Z,1.20
2023-05-04T15:36:14.586Z,1.10
2023-05-04T15:37:14.688Z,1.00
2023-05-04T15:38:14.882Z,1.20
2023-05-04T15:39:15.023Z,1.10
2023-05-04T15:40:15.173Z,1.20
2023-05-04T15:42:30.857Z,1.00
2023-05-04T15:43:30.979Z,1.00
2023-05-04T15:44:31.076Z,1.10
2023-05-04T15:45:31.217Z,1.20
2023-05-04T15:46:31.409Z,1.10
2023-05-04T15:47:31.558Z,1.00
2023-05-04T15:48:31.670Z,1.10
2023-05-04T15:49:31.791Z,1.20
2023-05-04T15:50:33.064Z,1.10
2023-05-04T15:51:32.128Z,1.10
2023-05-04T15:52:32.124Z,1.10
2023-05-04T15:53:32.260Z,1.00
2023-05-04T15:54:32.383Z,1.20
2023-05-04T15:55:32.572Z,1.00
2023-05-04T15:56:32.688Z,1.20
2023-05-04T15:57:32.821Z,1.10
2023-05-04T15:58:33.075Z,1.00
2023-05-04T15:59:33.093Z,1.10
2023-05-04T16:00:33.222Z,1.10
2023-05-04T16:12:30.170Z,1.20
2023-05-04T16:13:30.303Z,1.10
2023-05-04T16:14:30.427Z,1.20
2023-05-04T16:15:31.514Z,1.30
2023-05-04T16:16:30.779Z,1.00
2023-05-04T16:17:30.935Z,1.20
2023-05-04T16:18:31.026Z,1.30
2023-05-04T16:19:31.208Z,1.00
2023-05-04T16:20:31.338Z,1.00
2023-05-04T16:21:31.486Z,1.20
2023-05-04T16:22:31.595Z,1.10
2023-05-04T16:23:31.747Z,1.00
2023-05-04T16:24:31.908Z,1.20
2023-05-04T16:25:31.998Z,0.90
2023-05-04T16:26:32.263Z,1.10
2023-05-04T16:27:32.376Z,1.10
2023-05-04T16:28:32.361Z,1.10
2023-05-04T16:29:32.476Z,1.00
2023-05-04T16:30:32.650Z,1.20
2023-05-04T16:31:32.861Z,1.10
2023-05-04T16:32:32.944Z,1.20
2023-05-04T16:33:33.039Z,1.30
2023-05-04T16:34:33.161Z,1.20
2023-05-04T16:35:33.258Z,1.00
2023-05-04T16:36:33.368Z,1.20
2023-05-04T16:37:33.538Z,1.20
2023-05-04T16:38:33.613Z,1.10
2023-05-04T16:39:33.731Z,1.10
2023-05-04T16:40:33.920Z,1.10
2023-05-04T16:41:34.236Z,1.00
2023-05-04T16:42:35.027Z,1.00
2023-05-04T16:43:34.310Z,1.20
2023-05-04T16:44:34.493Z,1.30
2023-05-04T16:45:34.645Z,1.10
2023-05-04T16:46:34.835Z,0.90
2023-05-04T16:47:34.954Z,1.10
2023-05-04T16:48:35.092Z,1.10
2023-05-04T16:49:35.251Z,1.10
2023-05-04T16:50:35.390Z,1.20
2023-05-04T16:51:35.522Z,1.10
2023-05-04T16:52:35.642Z,1.20
2023-05-04T16:53:35.755Z,1.10
2023-05-04T16:54:35.972Z,1.20
2023-05-04T16:55:36.077Z,0.90
2023-05-04T16:56:36.549Z,1.00
2023-05-04T16:57:36.290Z,1.20
2023-05-04T16:58:36.497Z,1.10
2023-05-04T16:59:36.628Z,1.10
2023-05-04T17:00:36.736Z,1.20
2023-05-04T17:01:36.899Z,1.00
2023-05-04T17:02:37.124Z,1.20
2023-05-04T17:03:37.212Z,1.20
2023-05-04T17:04:37.278Z,1.20
2023-05-04T17:05:37.494Z,1.10
2023-05-04T17:06:37.558Z,1.10
2023-05-04T17:07:37.712Z,1.10
2023-05-04T17:08:37.851Z,1.10
2023-05-04T17:09:37.977Z,1.10
2023-05-04T17:10:38.096Z,0.90
2023-05-04T17:11:38.370Z,1.10
2023-05-04T17:12:38.459Z,1.10
2023-05-04T17:13:38.592Z,1.30
2023-05-04T17:14:38.711Z,1.10
2023-05-04T17:15:38.849Z,1.20
2023-05-04T17:16:39.273Z,1.20
2023-05-04T17:17:39.196Z,1.10
2023-05-04T17:18:39.216Z,1.10
2023-05-04T17:19:39.353Z,1.20
2023-05-04T17:20:39.504Z,1.20
2023-05-04T17:21:39.670Z,1.20
2023-05-04T17:22:39.778Z,1.00
2023-05-04T17:23:40.019Z,1.10
2023-05-04T17:24:40.093Z,1.10
2023-05-04T17:25:40.156Z,1.10
2023-05-04T17:26:40.316Z,1.00
2023-05-04T17:27:40.498Z,1.00
2023-05-04T17:28:40.599Z,1.10
2023-05-04T17:29:40.783Z,1.10
2023-05-04T17:30:40.921Z,1.20
2023-05-04T17:31:41.072Z,1.10
2023-05-04T17:32:41.286Z,1.10
2023-05-04T17:33:41.361Z,1.20
2023-05-04T17:34:41.469Z,1.20
2023-05-04T17:35:41.613Z,1.30
2023-05-04T17:36:42.675Z,1.10
2023-05-04T17:37:41.921Z,1.20
2023-05-04T17:38:42.054Z,1.20
2023-05-04T17:39:42.201Z,1.10
2023-05-04T17:40:42.365Z,1.20
2023-05-04T17:41:42.507Z,1.30
2023-05-04T17:42:42.629Z,1.20
2023-05-04T17:43:42.756Z,1.10
2023-05-04T17:44:42.913Z,1.10
2023-05-04T17:45:44.018Z,1.10
2023-05-04T17:46:43.203Z,1.20